sensor_id;sensor_type;location;lat;lon;timestamp;temperature;humidity
16966;DHT22;8599;47.852;12.070;2023-01-30T00:00:07;-2.70;99.90
16966;DHT22;8599;47.852;12.070;2023-01-30T00:02:35;-2.70;99.90
16966;DHT22;8599;47.852;12.070;2023-01-30T00:05:02;-2.80;99.90
16966;DHT22;8599;47.852;12.070;2023-01-30T00:07:29;-2.80;99.90
16966;DHT22;8599;47.852;12.070;2023-01-30T00:09:56;-2.70;99.90
16966;DHT22;8599;47.852;12.070;2023-01-30T00:12:23;-2.70;99.90
16966;DHT22;8599;47.852;12.070;2023-01-30T00:14:50;-2.60;99.90
16966;DHT22;8599;47.852;12.070;2023-01-30T00:17:16;-2.60;99.90
16966;DHT22;8599;47.852;12.070;2023-01-30T00:19:45;-2.70;99.90
16966;DHT22;8599;47.852;12.070;2023-01-30T00:22:11;-3.00;99.90
16966;DHT22;8599;47.852;12.070;2023-01-30T00:24:38;-3.10;99.90
16966;DHT22;8599;47.852;12.070;2023-01-30T00:27:05;-3.10;99.90
16966;DHT22;8599;47.852;12.070;2023-01-30T00:29:32;-3.20;99.90
16966;DHT22;8599;47.852;12.070;2023-01-30T00:31:58;-3.20;99.90
16966;DHT22;8599;47.852;12.070;2023-01-30T00:34:25;-3.10;99.90
16966;DHT22;8599;47.852;12.070;2023-01-30T00:36:53;-3.10;99.90
16966;DHT22;8599;47.852;12.070;2023-01-30T00:39:20;-3.10;99.90
16966;DHT22;8599;47.852;12.070;2023-01-30T00:41:47;-3.10;99.90
16966;DHT22;8599;47.852;12.070;2023-01-30T00:44:31;-3.10;99.90
16966;DHT22;8599;47.852;12.070;2023-01-30T00:47:15;-2.90;99.90
16966;DHT22;8599;47.852;12.070;2023-01-30T00:49:42;-2.80;99.90
16966;DHT22;8599;47.852;12.070;2023-01-30T00:52:10;-2.70;99.90
16966;DHT22;8599;47.852;12.070;2023-01-30T00:54:37;-2.80;99.90
16966;DHT22;8599;47.852;12.070;2023-01-30T00:57:04;-2.80;99.90
16966;DHT22;8599;47.852;12.070;2023-01-30T00:59:31;-3.00;99.90
16966;DHT22;8599;47.852;12.070;2023-01-30T01:01:58;-3.10;99.90
16966;DHT22;8599;47.852;12.070;2023-01-30T01:04:25;-3.00;99.90
16966;DHT22;8599;47.852;12.070;2023-01-30T01:06:52;-3.20;99.90
16966;DHT22;8599;47.852;12.070;2023-01-30T01:09:20;-3.30;99.90
16966;DHT22;8599;47.852;12.070;2023-01-30T01:11:46;-3.50;99.90
16966;DHT22;8599;47.852;12.070;2023-01-30T01:14:13;-3.50;99.90
16966;DHT22;8599;47.852;12.070;2023-01-30T01:16:40;-3.50;99.90
16966;DHT22;8599;47.852;12.070;2023-01-30T01:19:07;-3.60;99.90
16966;DHT22;8599;47.852;12.070;2023-01-30T01:21:34;-3.80;99.90
16966;DHT22;8599;47.852;12.070;2023-01-30T01:24:01;-3.90;99.90
16966;DHT22;8599;47.852;12.070;2023-01-30T01:26:29;-4.00;99.90
16966;DHT22;8599;47.852;12.070;2023-01-30T01:28:56;-4.20;99.90
16966;DHT22;8599;47.852;12.070;2023-01-30T01:31:23;-4.20;99.90
16966;DHT22;8599;47.852;12.070;2023-01-30T01:33:50;-4.10;99.90
16966;DHT22;8599;47.852;12.070;2023-01-30T01:36:17;-4.10;99.90
16966;DHT22;8599;47.852;12.070;2023-01-30T01:38:44;-3.90;99.90
16966;DHT22;8599;47.852;12.070;2023-01-30T01:41:11;-3.80;99.90
16966;DHT22;8599;47.852;12.070;2023-01-30T01:44:01;-3.70;99.90
16966;DHT22;8599;47.852;12.070;2023-01-30T01:46:30;-3.50;99.90
16966;DHT22;8599;47.852;12.070;2023-01-30T01:48:59;-3.40;99.90
16966;DHT22;8599;47.852;12.070;2023-01-30T01:51:30;-3.40;99.90
16966;DHT22;8599;47.852;12.070;2023-01-30T01:54:01;-3.20;99.90
16966;DHT22;8599;47.852;12.070;2023-01-30T01:56:30;-3.10;99.90
16966;DHT22;8599;47.852;12.070;2023-01-30T01:59:02;-3.10;99.90
16966;DHT22;8599;47.852;12.070;2023-01-30T02:01:31;-3.00;99.90
16966;DHT22;8599;47.852;12.070;2023-01-30T02:04:03;-3.00;99.90
16966;DHT22;8599;47.852;12.070;2023-01-30T02:06:33;-3.10;99.90
16966;DHT22;8599;47.852;12.070;2023-01-30T02:09:04;-3.10;99.90
16966;DHT22;8599;47.852;12.070;2023-01-30T02:11:37;-3.20;99.90
16966;DHT22;8599;47.852;12.070;2023-01-30T02:14:07;-3.20;99.90
16966;DHT22;8599;47.852;12.070;2023-01-30T02:16:35;-3.10;99.90
16966;DHT22;8599;47.852;12.070;2023-01-30T02:19:03;-3.10;99.90
16966;DHT22;8599;47.852;12.070;2023-01-30T02:22:01;-3.20;99.90
16966;DHT22;8599;47.852;12.070;2023-01-30T02:24:53;-3.20;99.90
16966;DHT22;8599;47.852;12.070;2023-01-30T02:30:42;-3.10;99.90
16966;DHT22;8599;47.852;12.070;2023-01-30T02:33:17;-3.10;99.90
16966;DHT22;8599;47.852;12.070;2023-01-30T02:35:53;-3.10;99.90
16966;DHT22;8599;47.852;12.070;2023-01-30T02:38:32;-3.10;99.90
16966;DHT22;8599;47.852;12.070;2023-01-30T02:41:10;-3.20;99.90
16966;DHT22;8599;47.852;12.070;2023-01-30T02:43:43;-3.20;99.90
16966;DHT22;8599;47.852;12.070;2023-01-30T02:46:16;-3.20;99.90
16966;DHT22;8599;47.852;12.070;2023-01-30T02:48:46;-3.30;99.90
16966;DHT22;8599;47.852;12.070;2023-01-30T02:51:18;-3.30;99.90
16966;DHT22;8599;47.852;12.070;2023-01-30T02:53:46;-3.50;99.90
16966;DHT22;8599;47.852;12.070;2023-01-30T02:56:14;-3.50;99.90
16966;DHT22;8599;47.852;12.070;2023-01-30T02:58:43;-3.60;99.90
16966;DHT22;8599;47.852;12.070;2023-01-30T03:01:32;-3.50;99.90
16966;DHT22;8599;47.852;12.070;2023-01-30T03:04:20;-3.50;99.90
16966;DHT22;8599;47.852;12.070;2023-01-30T03:07:05;-3.80;99.90
16966;DHT22;8599;47.852;12.070;2023-01-30T03:09:42;-3.80;99.90
16966;DHT22;8599;47.852;12.070;2023-01-30T03:12:15;-3.70;99.90
16966;DHT22;8599;47.852;12.070;2023-01-30T03:14:46;-3.90;99.90
16966;DHT22;8599;47.852;12.070;2023-01-30T03:17:17;-4.00;99.90
16966;DHT22;8599;47.852;12.070;2023-01-30T03:19:44;-4.20;99.90
16966;DHT22;8599;47.852;12.070;2023-01-30T03:22:11;-4.30;99.90
16966;DHT22;8599;47.852;12.070;2023-01-30T03:24:38;-4.30;99.90
16966;DHT22;8599;47.852;12.070;2023-01-30T03:27:09;-4.40;99.90
16966;DHT22;8599;47.852;12.070;2023-01-30T03:29:36;-4.70;99.90
16966;DHT22;8599;47.852;12.070;2023-01-30T03:32:04;-4.90;99.90
16966;DHT22;8599;47.852;12.070;2023-01-30T03:34:32;-4.80;99.90
16966;DHT22;8599;47.852;12.070;2023-01-30T03:36:59;-5.00;99.90
16966;DHT22;8599;47.852;12.070;2023-01-30T03:39:26;-5.10;99.90
16966;DHT22;8599;47.852;12.070;2023-01-30T03:41:53;-5.00;99.90
16966;DHT22;8599;47.852;12.070;2023-01-30T03:44:20;-4.90;99.90
16966;DHT22;8599;47.852;12.070;2023-01-30T03:46:47;-4.90;99.90
16966;DHT22;8599;47.852;12.070;2023-01-30T03:49:13;-4.90;99.90
16966;DHT22;8599;47.852;12.070;2023-01-30T03:51:42;-4.80;99.90
16966;DHT22;8599;47.852;12.070;2023-01-30T03:54:08;-4.70;99.90
16966;DHT22;8599;47.852;12.070;2023-01-30T03:56:35;-4.60;99.90
16966;DHT22;8599;47.852;12.070;2023-01-30T03:59:02;-4.50;99.90
16966;DHT22;8599;47.852;12.070;2023-01-30T04:01:29;-4.40;99.90
16966;DHT22;8599;47.852;12.070;2023-01-30T04:03:56;-4.30;99.90
16966;DHT22;8599;47.852;12.070;2023-01-30T04:06:23;-4.30;99.90
16966;DHT22;8599;47.852;12.070;2023-01-30T04:08:52;-4.20;99.90
16966;DHT22;8599;47.852;12.070;2023-01-30T04:11:19;-4.00;99.90
16966;DHT22;8599;47.852;12.070;2023-01-30T04:13:46;-3.90;99.90
16966;DHT22;8599;47.852;12.070;2023-01-30T04:16:15;-3.80;99.90
16966;DHT22;8599;47.852;12.070;2023-01-30T04:18:42;-3.80;99.90
16966;DHT22;8599;47.852;12.070;2023-01-30T04:21:09;-3.70;99.90
16966;DHT22;8599;47.852;12.070;2023-01-30T04:23:36;-3.70;99.90
16966;DHT22;8599;47.852;12.070;2023-01-30T04:26:05;-3.60;99.90
16966;DHT22;8599;47.852;12.070;2023-01-30T04:28:32;-3.50;99.90
16966;DHT22;8599;47.852;12.070;2023-01-30T04:30:59;-3.50;99.90
16966;DHT22;8599;47.852;12.070;2023-01-30T04:33:25;-3.50;99.90
16966;DHT22;8599;47.852;12.070;2023-01-30T04:35:53;-3.50;99.90
16966;DHT22;8599;47.852;12.070;2023-01-30T04:38:20;-3.50;99.90
16966;DHT22;8599;47.852;12.070;2023-01-30T04:40:48;-3.60;99.90
16966;DHT22;8599;47.852;12.070;2023-01-30T04:43:16;-3.60;99.90
16966;DHT22;8599;47.852;12.070;2023-01-30T04:45:43;-3.40;99.90
16966;DHT22;8599;47.852;12.070;2023-01-30T04:48:10;-3.40;99.90
16966;DHT22;8599;47.852;12.070;2023-01-30T04:50:37;-3.50;99.90
16966;DHT22;8599;47.852;12.070;2023-01-30T04:53:04;-3.50;99.90
16966;DHT22;8599;47.852;12.070;2023-01-30T04:55:31;-3.40;99.90
16966;DHT22;8599;47.852;12.070;2023-01-30T04:57:58;-3.50;99.90
16966;DHT22;8599;47.852;12.070;2023-01-30T05:00:26;-3.40;99.90
16966;DHT22;8599;47.852;12.070;2023-01-30T05:02:53;-3.50;99.90
16966;DHT22;8599;47.852;12.070;2023-01-30T05:05:20;-3.50;99.90
16966;DHT22;8599;47.852;12.070;2023-01-30T05:07:47;-3.50;99.90
16966;DHT22;8599;47.852;12.070;2023-01-30T05:10:15;-3.40;99.90
16966;DHT22;8599;47.852;12.070;2023-01-30T05:12:41;-3.30;99.90
16966;DHT22;8599;47.852;12.070;2023-01-30T05:15:09;-3.30;99.90
16966;DHT22;8599;47.852;12.070;2023-01-30T05:17:38;-3.30;99.90
16966;DHT22;8599;47.852;12.070;2023-01-30T05:20:08;-3.40;99.90
16966;DHT22;8599;47.852;12.070;2023-01-30T05:22:35;-3.30;99.90
16966;DHT22;8599;47.852;12.070;2023-01-30T05:25:02;-3.30;99.90
16966;DHT22;8599;47.852;12.070;2023-01-30T05:27:29;-3.40;99.90
16966;DHT22;8599;47.852;12.070;2023-01-30T05:29:56;-3.30;99.90
16966;DHT22;8599;47.852;12.070;2023-01-30T05:32:22;-3.40;99.90
16966;DHT22;8599;47.852;12.070;2023-01-30T05:34:51;-3.40;99.90
16966;DHT22;8599;47.852;12.070;2023-01-30T05:37:18;-3.30;99.90
16966;DHT22;8599;47.852;12.070;2023-01-30T05:39:45;-3.30;99.90
16966;DHT22;8599;47.852;12.070;2023-01-30T05:42:11;-3.30;99.90
16966;DHT22;8599;47.852;12.070;2023-01-30T05:44:38;-3.30;99.90
16966;DHT22;8599;47.852;12.070;2023-01-30T05:47:05;-3.20;99.90
16966;DHT22;8599;47.852;12.070;2023-01-30T05:49:32;-3.20;99.90
16966;DHT22;8599;47.852;12.070;2023-01-30T05:52:00;-3.20;99.90
16966;DHT22;8599;47.852;12.070;2023-01-30T05:54:27;-3.40;99.90
16966;DHT22;8599;47.852;12.070;2023-01-30T05:56:54;-3.40;99.90
16966;DHT22;8599;47.852;12.070;2023-01-30T05:59:21;-3.50;99.90
16966;DHT22;8599;47.852;12.070;2023-01-30T06:01:47;-3.50;99.90
16966;DHT22;8599;47.852;12.070;2023-01-30T06:04:14;-3.60;99.90
16966;DHT22;8599;47.852;12.070;2023-01-30T06:06:41;-3.60;99.90
16966;DHT22;8599;47.852;12.070;2023-01-30T06:09:10;-3.70;99.90
16966;DHT22;8599;47.852;12.070;2023-01-30T06:11:37;-3.70;99.90
16966;DHT22;8599;47.852;12.070;2023-01-30T06:14:03;-3.60;99.90
16966;DHT22;8599;47.852;12.070;2023-01-30T06:16:30;-3.50;99.90
16966;DHT22;8599;47.852;12.070;2023-01-30T06:18:57;-3.60;99.90
16966;DHT22;8599;47.852;12.070;2023-01-30T06:21:24;-3.60;99.90
16966;DHT22;8599;47.852;12.070;2023-01-30T06:23:51;-3.50;99.90
16966;DHT22;8599;47.852;12.070;2023-01-30T06:26:19;-3.60;99.90
16966;DHT22;8599;47.852;12.070;2023-01-30T06:28:46;-3.50;99.90
16966;DHT22;8599;47.852;12.070;2023-01-30T06:31:14;-3.50;99.90
16966;DHT22;8599;47.852;12.070;2023-01-30T06:33:41;-3.50;99.90
16966;DHT22;8599;47.852;12.070;2023-01-30T06:36:08;-3.40;99.90
16966;DHT22;8599;47.852;12.070;2023-01-30T06:38:35;-3.40;99.90
16966;DHT22;8599;47.852;12.070;2023-01-30T06:41:02;-3.30;99.90
16966;DHT22;8599;47.852;12.070;2023-01-30T06:43:30;-3.30;99.90
16966;DHT22;8599;47.852;12.070;2023-01-30T06:45:57;-3.30;99.90
16966;DHT22;8599;47.852;12.070;2023-01-30T06:48:24;-3.20;99.90
16966;DHT22;8599;47.852;12.070;2023-01-30T06:50:55;-3.20;99.90
16966;DHT22;8599;47.852;12.070;2023-01-30T06:53:22;-3.00;99.90
16966;DHT22;8599;47.852;12.070;2023-01-30T06:55:54;-3.00;99.90
16966;DHT22;8599;47.852;12.070;2023-01-30T06:58:21;-3.00;99.90
16966;DHT22;8599;47.852;12.070;2023-01-30T07:00:49;-3.00;99.90
16966;DHT22;8599;47.852;12.070;2023-01-30T07:03:17;-2.90;99.90
16966;DHT22;8599;47.852;12.070;2023-01-30T07:05:46;-2.80;99.90
16966;DHT22;8599;47.852;12.070;2023-01-30T07:08:14;-2.70;99.90
16966;DHT22;8599;47.852;12.070;2023-01-30T07:10:41;-2.60;99.90
16966;DHT22;8599;47.852;12.070;2023-01-30T07:13:08;-2.50;99.90
16966;DHT22;8599;47.852;12.070;2023-01-30T07:15:35;-2.50;99.90
16966;DHT22;8599;47.852;12.070;2023-01-30T07:18:04;-2.50;99.90
16966;DHT22;8599;47.852;12.070;2023-01-30T07:20:31;-2.50;99.90
16966;DHT22;8599;47.852;12.070;2023-01-30T07:22:57;-2.30;99.90
16966;DHT22;8599;47.852;12.070;2023-01-30T07:25:25;-2.30;99.90
16966;DHT22;8599;47.852;12.070;2023-01-30T07:27:54;-2.10;99.90
16966;DHT22;8599;47.852;12.070;2023-01-30T07:30:21;-2.10;99.90
16966;DHT22;8599;47.852;12.070;2023-01-30T07:32:52;-2.20;99.90
16966;DHT22;8599;47.852;12.070;2023-01-30T07:35:20;-2.20;99.90
16966;DHT22;8599;47.852;12.070;2023-01-30T07:37:48;-2.20;99.90
16966;DHT22;8599;47.852;12.070;2023-01-30T07:40:15;-2.20;99.90
16966;DHT22;8599;47.852;12.070;2023-01-30T07:42:43;-2.20;99.90
16966;DHT22;8599;47.852;12.070;2023-01-30T07:45:10;-2.20;99.90
16966;DHT22;8599;47.852;12.070;2023-01-30T07:47:37;-2.20;99.90
16966;DHT22;8599;47.852;12.070;2023-01-30T07:50:05;-2.10;99.90
16966;DHT22;8599;47.852;12.070;2023-01-30T07:52:33;-2.00;99.90
16966;DHT22;8599;47.852;12.070;2023-01-30T07:55:00;-2.00;99.90
16966;DHT22;8599;47.852;12.070;2023-01-30T07:57:27;-2.00;99.90
16966;DHT22;8599;47.852;12.070;2023-01-30T07:59:55;-2.00;99.90
16966;DHT22;8599;47.852;12.070;2023-01-30T08:02:21;-2.00;99.90
16966;DHT22;8599;47.852;12.070;2023-01-30T08:04:48;-1.90;99.90
16966;DHT22;8599;47.852;12.070;2023-01-30T08:07:15;-1.70;99.90
16966;DHT22;8599;47.852;12.070;2023-01-30T08:09:43;-1.70;99.90
16966;DHT22;8599;47.852;12.070;2023-01-30T08:12:10;-1.70;99.90
16966;DHT22;8599;47.852;12.070;2023-01-30T08:14:37;-1.70;99.90
16966;DHT22;8599;47.852;12.070;2023-01-30T08:17:04;-1.70;99.90
16966;DHT22;8599;47.852;12.070;2023-01-30T08:19:30;-1.60;99.90
16966;DHT22;8599;47.852;12.070;2023-01-30T08:21:58;-1.50;99.90
16966;DHT22;8599;47.852;12.070;2023-01-30T08:24:25;-1.40;99.90
16966;DHT22;8599;47.852;12.070;2023-01-30T08:26:53;-1.40;99.90
16966;DHT22;8599;47.852;12.070;2023-01-30T08:29:20;-1.20;99.90
16966;DHT22;8599;47.852;12.070;2023-01-30T08:31:47;-1.10;99.90
16966;DHT22;8599;47.852;12.070;2023-01-30T08:34:13;-1.00;99.90
16966;DHT22;8599;47.852;12.070;2023-01-30T08:36:40;-0.90;99.90
16966;DHT22;8599;47.852;12.070;2023-01-30T08:39:11;-0.80;99.90
16966;DHT22;8599;47.852;12.070;2023-01-30T08:41:38;-0.70;99.90
16966;DHT22;8599;47.852;12.070;2023-01-30T08:44:08;-0.50;99.90
16966;DHT22;8599;47.852;12.070;2023-01-30T08:46:35;-0.50;99.90
16966;DHT22;8599;47.852;12.070;2023-01-30T08:49:02;-0.50;99.90
16966;DHT22;8599;47.852;12.070;2023-01-30T08:51:29;-0.50;99.90
16966;DHT22;8599;47.852;12.070;2023-01-30T08:53:56;-0.40;99.90
16966;DHT22;8599;47.852;12.070;2023-01-30T08:56:23;-0.40;99.90
16966;DHT22;8599;47.852;12.070;2023-01-30T08:58:50;-0.40;99.90
16966;DHT22;8599;47.852;12.070;2023-01-30T09:01:18;-0.40;99.90
16966;DHT22;8599;47.852;12.070;2023-01-30T09:03:45;-0.30;99.90
16966;DHT22;8599;47.852;12.070;2023-01-30T09:06:12;-0.30;99.90
16966;DHT22;8599;47.852;12.070;2023-01-30T09:08:39;-0.30;99.90
16966;DHT22;8599;47.852;12.070;2023-01-30T09:11:05;-0.30;99.90
16966;DHT22;8599;47.852;12.070;2023-01-30T09:13:34;-0.20;99.90
16966;DHT22;8599;47.852;12.070;2023-01-30T09:16:01;-0.10;99.90
16966;DHT22;8599;47.852;12.070;2023-01-30T09:18:29;0.00;99.90
16966;DHT22;8599;47.852;12.070;2023-01-30T09:21:02;0.10;99.90
16966;DHT22;8599;47.852;12.070;2023-01-30T09:23:29;0.10;99.90
16966;DHT22;8599;47.852;12.070;2023-01-30T09:25:56;0.30;99.90
16966;DHT22;8599;47.852;12.070;2023-01-30T09:28:22;0.40;99.90
16966;DHT22;8599;47.852;12.070;2023-01-30T09:30:49;0.50;99.90
16966;DHT22;8599;47.852;12.070;2023-01-30T09:33:16;0.70;99.90
16966;DHT22;8599;47.852;12.070;2023-01-30T09:35:47;0.90;99.90
16966;DHT22;8599;47.852;12.070;2023-01-30T09:38:14;1.20;99.90
16966;DHT22;8599;47.852;12.070;2023-01-30T09:40:51;1.40;99.90
16966;DHT22;8599;47.852;12.070;2023-01-30T09:43:30;1.60;99.90
16966;DHT22;8599;47.852;12.070;2023-01-30T09:46:06;1.70;99.90
16966;DHT22;8599;47.852;12.070;2023-01-30T09:48:42;1.90;99.90
16966;DHT22;8599;47.852;12.070;2023-01-30T09:51:29;2.00;99.90
16966;DHT22;8599;47.852;12.070;2023-01-30T09:54:12;2.30;99.90
16966;DHT22;8599;47.852;12.070;2023-01-30T09:56:39;2.30;99.90
16966;DHT22;8599;47.852;12.070;2023-01-30T09:59:16;2.30;99.90
16966;DHT22;8599;47.852;12.070;2023-01-30T10:01:50;2.30;99.90
16966;DHT22;8599;47.852;12.070;2023-01-30T10:04:24;2.30;99.90
16966;DHT22;8599;47.852;12.070;2023-01-30T10:07:00;2.20;99.90
16966;DHT22;8599;47.852;12.070;2023-01-30T10:09:36;2.20;99.90
16966;DHT22;8599;47.852;12.070;2023-01-30T10:12:16;2.20;99.90
16966;DHT22;8599;47.852;12.070;2023-01-30T10:15:06;2.30;99.90
16966;DHT22;8599;47.852;12.070;2023-01-30T10:17:48;2.40;99.90
16966;DHT22;8599;47.852;12.070;2023-01-30T10:20:34;2.40;99.90
16966;DHT22;8599;47.852;12.070;2023-01-30T10:23:23;2.30;99.90
16966;DHT22;8599;47.852;12.070;2023-01-30T10:25:53;2.50;99.90
16966;DHT22;8599;47.852;12.070;2023-01-30T10:28:24;2.50;99.90
16966;DHT22;8599;47.852;12.070;2023-01-30T10:31:00;2.60;99.90
16966;DHT22;8599;47.852;12.070;2023-01-30T10:33:32;2.70;99.90
16966;DHT22;8599;47.852;12.070;2023-01-30T10:36:03;2.80;99.90
16966;DHT22;8599;47.852;12.070;2023-01-30T10:38:38;2.90;99.90
16966;DHT22;8599;47.852;12.070;2023-01-30T10:41:16;3.00;99.90
16966;DHT22;8599;47.852;12.070;2023-01-30T10:43:47;2.90;99.90
16966;DHT22;8599;47.852;12.070;2023-01-30T10:46:27;2.90;99.90
16966;DHT22;8599;47.852;12.070;2023-01-30T10:48:58;3.10;99.90
16966;DHT22;8599;47.852;12.070;2023-01-30T10:51:42;3.20;99.90
16966;DHT22;8599;47.852;12.070;2023-01-30T10:54:13;3.30;99.90
16966;DHT22;8599;47.852;12.070;2023-01-30T10:56:48;3.50;99.90
16966;DHT22;8599;47.852;12.070;2023-01-30T10:59:22;3.50;99.90
16966;DHT22;8599;47.852;12.070;2023-01-30T11:01:57;3.50;99.90
16966;DHT22;8599;47.852;12.070;2023-01-30T11:04:31;3.60;99.90
16966;DHT22;8599;47.852;12.070;2023-01-30T11:07:00;3.80;99.90
16966;DHT22;8599;47.852;12.070;2023-01-30T11:09:44;3.80;99.90
16966;DHT22;8599;47.852;12.070;2023-01-30T11:12:11;3.80;99.90
16966;DHT22;8599;47.852;12.070;2023-01-30T11:14:56;3.70;99.90
16966;DHT22;8599;47.852;12.070;2023-01-30T11:17:32;3.70;99.90
16966;DHT22;8599;47.852;12.070;2023-01-30T11:20:08;3.90;99.90
16966;DHT22;8599;47.852;12.070;2023-01-30T11:22:37;3.90;99.90
16966;DHT22;8599;47.852;12.070;2023-01-30T11:25:15;4.10;99.90
16966;DHT22;8599;47.852;12.070;2023-01-30T11:27:42;4.30;99.90
16966;DHT22;8599;47.852;12.070;2023-01-30T11:30:13;4.30;99.90
16966;DHT22;8599;47.852;12.070;2023-01-30T11:32:41;4.40;99.90
16966;DHT22;8599;47.852;12.070;2023-01-30T11:35:23;4.40;99.90
16966;DHT22;8599;47.852;12.070;2023-01-30T11:37:50;4.40;99.90
16966;DHT22;8599;47.852;12.070;2023-01-30T11:40:28;4.40;99.90
16966;DHT22;8599;47.852;12.070;2023-01-30T11:43:02;4.30;99.90
16966;DHT22;8599;47.852;12.070;2023-01-30T11:45:35;4.30;99.90
16966;DHT22;8599;47.852;12.070;2023-01-30T11:48:09;4.50;99.90
16966;DHT22;8599;47.852;12.070;2023-01-30T11:50:40;4.50;99.90
16966;DHT22;8599;47.852;12.070;2023-01-30T11:53:19;4.50;99.90
16966;DHT22;8599;47.852;12.070;2023-01-30T11:55:55;4.60;99.90
16966;DHT22;8599;47.852;12.070;2023-01-30T11:58:23;4.70;99.90
16966;DHT22;8599;47.852;12.070;2023-01-30T12:00:50;4.70;99.90
16966;DHT22;8599;47.852;12.070;2023-01-30T12:03:19;4.90;99.90
16966;DHT22;8599;47.852;12.070;2023-01-30T12:05:50;4.90;99.90
16966;DHT22;8599;47.852;12.070;2023-01-30T12:08:26;4.80;99.90
16966;DHT22;8599;47.852;12.070;2023-01-30T12:10:55;4.80;99.90
16966;DHT22;8599;47.852;12.070;2023-01-30T12:13:30;4.80;99.90
16966;DHT22;8599;47.852;12.070;2023-01-30T12:16:15;4.80;99.90
16966;DHT22;8599;47.852;12.070;2023-01-30T12:18:50;4.90;99.90
16966;DHT22;8599;47.852;12.070;2023-01-30T12:21:27;5.10;99.90
16966;DHT22;8599;47.852;12.070;2023-01-30T12:24:04;5.20;99.90
16966;DHT22;8599;47.852;12.070;2023-01-30T12:26:39;5.50;99.90
16966;DHT22;8599;47.852;12.070;2023-01-30T12:29:18;5.60;99.90
16966;DHT22;8599;47.852;12.070;2023-01-30T12:31:53;5.70;99.90
16966;DHT22;8599;47.852;12.070;2023-01-30T12:34:23;5.80;99.90
16966;DHT22;8599;47.852;12.070;2023-01-30T12:36:57;5.90;99.90
16966;DHT22;8599;47.852;12.070;2023-01-30T12:39:35;5.70;99.90
16966;DHT22;8599;47.852;12.070;2023-01-30T12:42:24;5.70;99.90
16966;DHT22;8599;47.852;12.070;2023-01-30T12:45:05;5.70;99.90
16966;DHT22;8599;47.852;12.070;2023-01-30T12:47:56;5.60;99.90
16966;DHT22;8599;47.852;12.070;2023-01-30T12:50:33;5.50;99.90
16966;DHT22;8599;47.852;12.070;2023-01-30T12:53:23;5.40;99.90
16966;DHT22;8599;47.852;12.070;2023-01-30T12:56:08;5.40;99.90
16966;DHT22;8599;47.852;12.070;2023-01-30T12:58:44;5.30;99.90
16966;DHT22;8599;47.852;12.070;2023-01-30T13:01:19;5.20;99.90
16966;DHT22;8599;47.852;12.070;2023-01-30T13:03:57;5.20;99.90
16966;DHT22;8599;47.852;12.070;2023-01-30T13:06:41;5.30;99.90
16966;DHT22;8599;47.852;12.070;2023-01-30T13:09:19;5.20;99.90
16966;DHT22;8599;47.852;12.070;2023-01-30T13:11:56;5.20;99.90
16966;DHT22;8599;47.852;12.070;2023-01-30T13:14:32;5.20;99.90
16966;DHT22;8599;47.852;12.070;2023-01-30T13:17:29;5.30;99.90
16966;DHT22;8599;47.852;12.070;2023-01-30T13:20:03;5.40;99.90
16966;DHT22;8599;47.852;12.070;2023-01-30T13:22:38;5.40;99.90
16966;DHT22;8599;47.852;12.070;2023-01-30T13:25:17;5.40;99.90
16966;DHT22;8599;47.852;12.070;2023-01-30T13:27:53;5.40;99.90
16966;DHT22;8599;47.852;12.070;2023-01-30T13:30:23;5.40;99.90
16966;DHT22;8599;47.852;12.070;2023-01-30T13:32:56;5.30;99.90
16966;DHT22;8599;47.852;12.070;2023-01-30T13:35:27;5.30;99.90
16966;DHT22;8599;47.852;12.070;2023-01-30T13:37:56;5.20;99.90
16966;DHT22;8599;47.852;12.070;2023-01-30T13:40:27;5.10;99.90
16966;DHT22;8599;47.852;12.070;2023-01-30T13:42:57;5.00;99.90
16966;DHT22;8599;47.852;12.070;2023-01-30T13:45:30;5.00;99.90
16966;DHT22;8599;47.852;12.070;2023-01-30T13:48:15;5.10;99.90
16966;DHT22;8599;47.852;12.070;2023-01-30T13:50:56;4.90;99.90
16966;DHT22;8599;47.852;12.070;2023-01-30T13:53:29;4.60;99.90
16966;DHT22;8599;47.852;12.070;2023-01-30T13:56:03;4.60;99.90
16966;DHT22;8599;47.852;12.070;2023-01-30T13:58:38;4.40;99.90
16966;DHT22;8599;47.852;12.070;2023-01-30T14:01:11;4.30;99.90
16966;DHT22;8599;47.852;12.070;2023-01-30T14:03:38;4.30;99.90
16966;DHT22;8599;47.852;12.070;2023-01-30T14:06:13;4.30;99.90
16966;DHT22;8599;47.852;12.070;2023-01-30T14:08:54;4.30;99.90
16966;DHT22;8599;47.852;12.070;2023-01-30T14:11:32;4.30;99.90
16966;DHT22;8599;47.852;12.070;2023-01-30T14:14:03;4.30;99.90
16966;DHT22;8599;47.852;12.070;2023-01-30T14:16:42;4.30;99.90
16966;DHT22;8599;47.852;12.070;2023-01-30T14:19:30;4.30;99.90
16966;DHT22;8599;47.852;12.070;2023-01-30T14:21:59;4.30;99.90
16966;DHT22;8599;47.852;12.070;2023-01-30T14:24:27;4.20;99.90
16966;DHT22;8599;47.852;12.070;2023-01-30T14:27:00;4.20;99.90
16966;DHT22;8599;47.852;12.070;2023-01-30T14:29:54;4.20;99.90
16966;DHT22;8599;47.852;12.070;2023-01-30T14:32:53;4.10;99.90
16966;DHT22;8599;47.852;12.070;2023-01-30T14:35:28;4.00;99.90
16966;DHT22;8599;47.852;12.070;2023-01-30T14:38:10;4.10;99.90
16966;DHT22;8599;47.852;12.070;2023-01-30T14:40:43;4.10;99.90
16966;DHT22;8599;47.852;12.070;2023-01-30T14:43:47;4.20;99.90
16966;DHT22;8599;47.852;12.070;2023-01-30T14:46:40;4.20;99.90
16966;DHT22;8599;47.852;12.070;2023-01-30T14:49:20;4.30;99.90
16966;DHT22;8599;47.852;12.070;2023-01-30T14:51:49;4.30;99.90
16966;DHT22;8599;47.852;12.070;2023-01-30T14:54:22;4.20;99.90
16966;DHT22;8599;47.852;12.070;2023-01-30T14:56:52;4.20;99.90
16966;DHT22;8599;47.852;12.070;2023-01-30T14:59:23;4.30;99.90
16966;DHT22;8599;47.852;12.070;2023-01-30T15:02:00;4.30;99.90
16966;DHT22;8599;47.852;12.070;2023-01-30T15:04:32;4.30;99.90
16966;DHT22;8599;47.852;12.070;2023-01-30T15:07:07;4.40;99.90
16966;DHT22;8599;47.852;12.070;2023-01-30T15:09:36;4.30;99.90
16966;DHT22;8599;47.852;12.070;2023-01-30T15:12:38;4.30;99.90
16966;DHT22;8599;47.852;12.070;2023-01-30T15:15:16;4.30;99.90
16966;DHT22;8599;47.852;12.070;2023-01-30T15:17:56;4.30;99.90
16966;DHT22;8599;47.852;12.070;2023-01-30T15:20:33;4.20;99.90
16966;DHT22;8599;47.852;12.070;2023-01-30T15:26:15;4.00;99.90
16966;DHT22;8599;47.852;12.070;2023-01-30T15:28:51;4.00;99.90
16966;DHT22;8599;47.852;12.070;2023-01-30T15:31:21;3.80;99.90
16966;DHT22;8599;47.852;12.070;2023-01-30T15:33:49;3.90;99.90
16966;DHT22;8599;47.852;12.070;2023-01-30T15:36:24;3.90;99.90
16966;DHT22;8599;47.852;12.070;2023-01-30T15:38:56;4.00;99.90
16966;DHT22;8599;47.852;12.070;2023-01-30T15:41:23;3.90;99.90
16966;DHT22;8599;47.852;12.070;2023-01-30T15:44:03;3.90;99.90
16966;DHT22;8599;47.852;12.070;2023-01-30T15:46:37;3.90;99.90
16966;DHT22;8599;47.852;12.070;2023-01-30T15:49:23;3.80;99.90
16966;DHT22;8599;47.852;12.070;2023-01-30T15:52:01;3.80;99.90
16966;DHT22;8599;47.852;12.070;2023-01-30T15:54:29;3.70;99.90
16966;DHT22;8599;47.852;12.070;2023-01-30T15:56:57;3.60;99.90
16966;DHT22;8599;47.852;12.070;2023-01-30T15:59:28;3.60;99.90
16966;DHT22;8599;47.852;12.070;2023-01-30T16:01:59;3.60;99.90
16966;DHT22;8599;47.852;12.070;2023-01-30T16:04:27;3.60;99.90
16966;DHT22;8599;47.852;12.070;2023-01-30T16:06:54;3.50;99.90
16966;DHT22;8599;47.852;12.070;2023-01-30T16:09:23;3.50;99.90